Time;durP1;ratioP1;P1;durP2;ratioP2;P2;SDS_P1;SDS_P2;PMS_P1;PMS_P2;Temp;Humidity;BMP_temperature;BMP_pressure;BME280_temperature;BME280_humidity;BME280_pressure;Samples;Min_cycle;Max_cycle;Signal;HPM_P1;HPM_P2
2021/05/03 00:02:40;;;;;;;10.32;6.15;;;6.40;97.20;;;;;;10194335;28;20598;-63
2021/05/03 00:07:41;;;;;;;11.15;6.90;;;6.30;97.60;;;;;;10195163;28;20932;-63
2021/05/03 00:12:44;;;;;;;8.07;5.97;;;6.30;98.00;;;;;;10191238;28;20939;-64
2021/05/03 00:17:45;;;;;;;6.53;5.25;;;6.30;98.00;;;;;;10192802;28;21056;-64
2021/05/03 00:22:47;;;;;;;17.52;6.65;;;6.40;98.20;;;;;;10196122;28;20061;-64
2021/05/03 00:27:49;;;;;;;8.43;6.53;;;6.30;98.30;;;;;;10193135;28;22023;-65
2021/05/03 00:32:50;;;;;;;8.43;6.50;;;6.30;98.50;;;;;;10196281;28;20097;-65
2021/05/03 00:37:51;;;;;;;15.10;7.55;;;6.20;98.70;;;;;;10191586;28;20056;-65
2021/05/03 00:42:54;;;;;;;9.43;6.80;;;6.10;98.90;;;;;;10192374;28;20054;-65
2021/05/03 00:47:55;;;;;;;9.23;7.13;;;6.00;99.40;;;;;;10191234;28;20184;-65
2021/05/03 00:52:57;;;;;;;14.40;7.60;;;5.80;99.60;;;;;;10189349;28;20324;-65
2021/05/03 00:58:00;;;;;;;16.23;9.52;;;5.80;99.90;;;;;;10192298;28;20054;-65
2021/05/03 01:03:02;;;;;;;13.55;8.40;;;5.70;99.90;;;;;;10192443;28;20066;-65
2021/05/03 01:08:04;;;;;;;12.03;8.40;;;5.70;99.90;;;;;;10185816;28;20050;-64
2021/05/03 01:13:06;;;;;;;17.40;9.35;;;5.70;99.90;;;;;;10189384;28;20141;-65
2021/05/03 01:18:08;;;;;;;19.97;10.27;;;5.80;99.90;;;;;;10191494;28;20054;-64
2021/05/03 01:23:10;;;;;;;23.92;11.13;;;5.90;99.90;;;;;;10191051;28;20060;-65
2021/05/03 01:28:12;;;;;;;20.13;12.05;;;6.00;99.90;;;;;;10192349;28;21545;-65
2021/05/03 01:33:15;;;;;;;21.33;13.18;;;6.10;99.90;;;;;;10188295;28;21115;-65
2021/05/03 01:38:17;;;;;;;24.13;14.25;;;6.30;99.90;;;;;;10191183;28;20054;-65
2021/05/03 01:43:22;;;;;;;26.20;15.02;;;6.30;99.90;;;;;;10188523;28;20169;-64
2021/05/03 01:48:25;;;;;;;30.63;15.85;;;6.40;99.90;;;;;;10191569;28;20829;-64
2021/05/03 01:53:27;;;;;;;35.58;14.90;;;6.40;99.90;;;;;;10194181;28;20184;-65
2021/05/03 01:58:29;;;;;;;23.77;14.40;;;6.50;99.90;;;;;;10190818;28;20196;-65
2021/05/03 02:03:31;;;;;;;26.02;15.60;;;6.50;99.90;;;;;;10187129;28;20185;-65
2021/05/03 02:08:33;;;;;;;31.48;18.20;;;6.40;99.90;;;;;;10195968;28;20542;-65
2021/05/03 02:13:35;;;;;;;36.27;19.77;;;6.40;99.90;;;;;;10195177;28;20148;-64
2021/05/03 02:18:36;;;;;;;34.75;19.50;;;6.70;99.90;;;;;;10193609;28;21142;-62
2021/05/03 02:23:39;;;;;;;35.30;18.40;;;6.60;99.90;;;;;;10193362;28;20769;-63
2021/05/03 02:28:40;;;;;;;35.50;18.80;;;6.70;99.90;;;;;;10196663;28;21333;-62
2021/05/03 02:33:41;;;;;;;37.03;18.25;;;6.80;99.90;;;;;;10194974;28;21963;-63
2021/05/03 02:38:44;;;;;;;37.05;21.10;;;6.90;99.90;;;;;;10196576;28;20760;-66
2021/05/03 02:43:46;;;;;;;41.60;21.67;;;7.00;99.90;;;;;;10198358;28;20078;-62
2021/05/03 02:48:47;;;;;;;33.75;18.58;;;7.00;99.90;;;;;;10200341;28;20065;-64
2021/05/03 02:53:50;;;;;;;39.80;21.48;;;6.90;99.90;;;;;;10197937;28;20829;-62
2021/05/03 02:58:51;;;;;;;43.30;22.50;;;6.80;99.90;;;;;;10194617;28;20104;-63
2021/05/03 03:03:52;;;;;;;48.72;21.30;;;6.70;99.90;;;;;;10196147;28;20484;-63
2021/05/03 03:08:55;;;;;;;35.30;20.67;;;6.60;99.90;;;;;;10198538;28;20182;-62
2021/05/03 03:13:56;;;;;;;40.50;22.40;;;6.60;99.90;;;;;;10195636;28;20093;-63
2021/05/03 03:18:59;;;;;;;55.10;25.15;;;6.50;99.90;;;;;;10196170;28;20774;-63
2021/05/03 03:24:01;;;;;;;;;;;6.40;99.90;;;;;;10196573;28;20199;-63
2021/05/03 03:29:03;;;;;;;42.35;22.98;;;6.40;99.90;;;;;;10196993;28;19930;-63
2021/05/03 03:34:05;;;;;;;39.33;22.60;;;6.40;99.90;;;;;;10196509;28;20046;-63
2021/05/03 03:39:07;;;;;;;38.47;21.52;;;6.50;99.90;;;;;;10203994;28;20183;-63
2021/05/03 03:44:09;;;;;;;36.30;20.05;;;6.50;99.90;;;;;;10198440;28;20085;-63
2021/05/03 03:49:11;;;;;;;44.63;21.48;;;6.50;99.90;;;;;;10196435;28;20861;-63
2021/05/03 03:54:13;;;;;;;43.95;22.55;;;6.50;99.90;;;;;;10194214;28;20077;-63
2021/05/03 03:59:15;;;;;;;42.00;23.80;;;6.50;99.90;;;;;;10192510;28;20140;-63
2021/05/03 04:04:20;;;;;;;41.15;22.42;;;6.40;99.90;;;;;;10193561;28;20123;-63
2021/05/03 04:09:31;;;;;;;40.28;20.05;;;6.50;99.90;;;;;;10199752;28;20643;-63
2021/05/03 04:25:17;;;;;;;39.90;22.05;;;6.60;99.90;;;;;;10194327;28;20046;-63
2021/05/03 04:30:19;;;;;;;44.97;21.42;;;6.50;99.90;;;;;;10190392;28;20116;-63
2021/05/03 04:35:21;;;;;;;44.80;24.57;;;6.60;99.90;;;;;;10193611;28;20054;-63
2021/05/03 04:40:23;;;;;;;42.10;23.05;;;6.60;99.90;;;;;;10190658;28;21073;-63
2021/05/03 04:45:25;;;;;;;51.47;24.47;;;6.70;99.90;;;;;;10193073;28;20168;-63
2021/05/03 04:50:26;;;;;;;40.72;20.77;;;6.80;99.90;;;;;;10191605;28;21009;-62
2021/05/03 04:55:28;;;;;;;47.97;26.73;;;6.90;99.90;;;;;;10193146;28;20088;-63
2021/05/03 05:00:30;;;;;;;51.20;26.20;;;7.00;99.90;;;;;;10190814;28;21082;-63
2021/05/03 05:05:32;;;;;;;53.70;25.92;;;7.20;99.90;;;;;;10193215;28;20500;-63
2021/05/03 05:10:34;;;;;;;57.92;29.27;;;7.40;99.90;;;;;;10192682;28;20741;-63
2021/05/03 05:15:36;;;;;;;61.00;30.93;;;7.60;99.90;;;;;;10192721;28;20510;-64
2021/05/03 05:20:37;;;;;;;50.38;29.42;;;7.60;99.90;;;;;;10193074;28;20060;-63
2021/05/03 05:25:39;;;;;;;55.63;29.60;;;7.90;99.90;;;;;;10191997;28;20145;-63
2021/05/03 05:30:41;;;;;;;57.22;29.58;;;8.30;99.90;;;;;;10191633;28;20066;-63
2021/05/03 05:35:42;;;;;;;51.03;28.55;;;8.90;99.90;;;;;;10191470;28;20051;-64
2021/05/03 05:40:46;;;;;;;52.03;29.08;;;9.50;99.90;;;;;;10195460;28;20438;-63
2021/05/03 05:45:47;;;;;;;46.65;28.50;;;9.90;98.70;;;;;;10199881;28;20068;-64
2021/05/03 05:50:49;;;;;;;48.85;28.85;;;10.70;96.60;;;;;;10199704;28;20152;-64
2021/05/03 05:55:51;;;;;;;51.55;28.45;;;10.90;95.60;;;;;;10198772;28;20296;-63
2021/05/03 06:00:52;;;;;;;59.60;32.80;;;10.40;96.30;;;;;;10200642;28;20649;-64
2021/05/03 06:05:56;;;;;;;65.00;33.97;;;10.00;96.90;;;;;;10198591;28;20050;-63
2021/05/03 06:10:59;;;;;;;61.97;34.05;;;9.90;97.80;;;;;;10199489;28;20192;-64
2021/05/03 06:16:01;;;;;;;69.57;34.83;;;9.90;98.30;;;;;;10191667;28;20458;-63
2021/05/03 06:21:03;;;;;;;62.30;31.95;;;10.10;98.60;;;;;;10199020;28;20089;-64
2021/05/03 06:26:05;;;;;;;61.33;32.00;;;10.50;98.30;;;;;;10198353;28;20050;-64
2021/05/03 06:31:06;;;;;;;45.47;25.15;;;11.90;96.20;;;;;;10198226;28;20086;-64
2021/05/03 06:36:08;;;;;;;47.65;26.70;;;12.90;92.90;;;;;;10197834;28;20049;-64
2021/05/03 06:41:10;;;;;;;47.13;27.02;;;13.30;91.20;;;;;;10196535;28;20054;-64
2021/05/03 06:46:12;;;;;;;55.50;26.15;;;14.10;90.10;;;;;;10198963;28;20261;-64
2021/05/03 06:51:13;;;;;;;41.00;23.08;;;15.60;84.10;;;;;;10191667;28;20510;-64
2021/05/03 06:56:15;;;;;;;40.05;22.35;;;15.10;82.80;;;;;;10193697;28;20061;-64
2021/05/03 07:01:17;;;;;;;33.72;20.27;;;14.50;86.70;;;;;;10194009;28;20058;-64
2021/05/03 07:06:19;;;;;;;29.90;19.50;;;15.80;80.10;;;;;;10195255;28;20139;-64
2021/05/03 07:11:23;;;;;;;28.77;18.88;;;17.10;74.10;;;;;;10195081;28;20157;-64
2021/05/03 07:16:24;;;;;;;30.33;19.02;;;18.00;67.50;;;;;;10194791;28;20057;-64
2021/05/03 07:21:26;;;;;;;29.42;17.90;;;17.80;68.10;;;;;;10195115;28;20073;-64
2021/05/03 07:26:28;;;;;;;24.90;16.47;;;18.30;65.50;;;;;;10195508;28;20057;-64
2021/05/03 07:31:30;;;;;;;31.15;17.20;;;18.10;66.30;;;;;;10195637;28;20072;-64
2021/05/03 07:36:31;;;;;;;29.10;15.90;;;17.80;65.60;;;;;;10197348;28;20085;-64
2021/05/03 07:41:34;;;;;;;27.35;16.25;;;17.60;66.20;;;;;;10198011;28;20174;-64
2021/05/03 07:46:37;;;;;;;25.48;14.70;;;17.60;65.60;;;;;;10196258;28;20140;-64
2021/05/03 07:51:38;;;;;;;26.45;15.48;;;16.40;69.80;;;;;;10192366;28;21169;-64
2021/05/03 07:56:41;;;;;;;25.42;13.70;;;17.10;69.70;;;;;;10192251;28;21445;-64
2021/05/03 08:01:42;;;;;;;;;;;18.70;62.00;;;;;;10192006;28;20071;-65
2021/05/03 08:06:45;;;;;;;22.40;9.25;;;18.70;61.30;;;;;;10193793;28;20966;-65
2021/05/03 08:11:47;;;;;;;17.05;9.80;;;18.40;59.40;;;;;;10196472;28;20058;-65
2021/05/03 08:16:51;;;;;;;18.02;9.68;;;18.20;59.60;;;;;;10192460;28;20188;-64
2021/05/03 08:21:52;;;;;;;19.67;8.98;;;18.90;58.00;;;;;;10191910;28;20050;-64
2021/05/03 08:26:54;;;;;;;20.00;9.90;;;20.50;53.20;;;;;;10190320;28;21727;-64
2021/05/03 08:31:56;;;;;;;17.63;8.38;;;21.00;50.00;;;;;;10192249;28;20057;-65
2021/05/03 08:36:58;;;;;;;;;;;20.60;50.90;;;;;;10191454;28;20149;-64
2021/05/03 08:42:03;;;;;;;16.08;7.97;;;19.60;52.40;;;;;;10193567;28;19929;-65
2021/05/03 08:47:04;;;;;;;14.90;7.25;;;19.70;52.20;;;;;;10193720;28;20506;-65
2021/05/03 08:52:12;;;;;;;17.33;7.60;;;19.50;52.20;;;;;;10192953;28;20491;-66
2021/05/03 08:57:15;;;;;;;16.20;8.02;;;19.00;53.10;;;;;;10191565;28;22707;-65
2021/05/03 09:02:18;;;;;;;14.75;8.07;;;18.70;53.90;;;;;;10194009;28;20724;-65
2021/05/03 09:07:20;;;;;;;19.75;7.38;;;18.50;54.70;;;;;;10193404;28;20068;-65
2021/05/03 09:12:23;;;;;;;15.55;7.93;;;19.10;53.20;;;;;;10190889;28;20077;-64
2021/05/03 09:17:27;;;;;;;16.15;8.35;;;19.10;53.50;;;;;;10198089;28;20312;-65
2021/05/03 09:22:30;;;;;;;18.35;8.25;;;19.40;52.80;;;;;;10202144;28;20751;-63
2021/05/03 09:27:33;;;;;;;13.30;7.43;;;19.50;52.90;;;;;;10195803;28;20968;-64
2021/05/03 09:32:34;;;;;;;14.65;7.72;;;20.50;50.80;;;;;;10199715;28;20058;-64
2021/05/03 09:37:38;;;;;;;17.80;9.70;;;21.20;47.60;;;;;;10198098;28;20050;-65
2021/05/03 09:42:49;;;;;;;18.23;9.45;;;20.60;49.80;;;;;;10200363;28;20065;-64
2021/05/03 09:47:53;;;;;;;15.10;7.97;;;19.30;52.40;;;;;;10203874;28;20671;-64
2021/05/03 09:53:03;;;;;;;10.15;5.80;;;19.20;52.50;;;;;;10198559;28;20828;-64
2021/05/03 09:58:15;;;;;;;11.63;6.55;;;19.70;51.20;;;;;;10198361;28;20050;-64
2021/05/03 10:03:36;;;;;;;13.93;6.03;;;20.60;49.80;;;;;;10196784;28;20745;-64
2021/05/03 10:08:40;;;;;;;12.13;4.30;;;21.30;47.10;;;;;;10198025;28;20065;-64
2021/05/03 10:13:44;;;;;;;4.22;3.42;;;21.90;44.90;;;;;;10193826;28;20068;-64
2021/05/03 10:18:46;;;;;;;7.85;4.55;;;22.10;42.40;;;;;;10195780;28;21350;-64
2021/05/03 10:23:47;;;;;;;14.00;5.85;;;22.20;42.00;;;;;;10197860;28;20957;-65
2021/05/03 10:28:50;;;;;;;;;;;21.90;43.20;;;;;;10193178;28;20208;-64
2021/05/03 10:33:52;;;;;;;10.52;5.00;;;21.80;42.40;;;;;;10194863;28;19929;-64
2021/05/03 10:38:54;;;;;;;11.15;5.10;;;21.20;43.90;;;;;;10194716;28;20439;-64
2021/05/03 10:44:12;;;;;;;8.15;5.40;;;20.50;45.30;;;;;;10196498;28;20525;-64
2021/05/03 10:49:18;;;;;;;8.98;5.18;;;20.00;46.20;;;;;;10193335;28;20061;-63
2021/05/03 10:54:39;;;;;;;12.60;5.07;;;19.80;46.80;;;;;;10196074;28;20196;-64
2021/05/03 10:59:47;;;;;;;7.30;4.77;;;19.60;47.20;;;;;;10197563;28;21285;-64
2021/05/03 11:05:11;;;;;;;13.25;5.00;;;19.70;46.90;;;;;;10194069;28;21308;-64
2021/05/03 11:10:13;;;;;;;12.13;5.65;;;19.90;46.60;;;;;;10191896;28;20738;-63
2021/05/03 11:15:19;;;;;;;;;;;20.10;45.20;;;;;;10192622;28;21012;-64
2021/05/03 11:20:21;;;;;;;11.10;5.22;;;19.40;46.80;;;;;;10193732;28;20072;-64
2021/05/03 11:25:25;;;;;;;10.52;5.35;;;19.70;45.90;;;;;;10194110;28;20128;-64
2021/05/03 11:30:34;;;;;;;8.35;5.80;;;20.50;45.50;;;;;;10194236;28;20151;-65
2021/05/03 11:35:39;;;;;;;12.02;6.13;;;20.60;44.40;;;;;;10195237;28;20054;-64
2021/05/03 11:40:51;;;;;;;15.45;7.63;;;21.00;45.50;;;;;;10196204;28;21428;-65
2021/05/03 11:46:04;;;;;;;11.40;7.18;;;21.20;42.80;;;;;;10190070;28;20188;-64
2021/05/03 11:51:07;;;;;;;13.48;6.57;;;21.30;42.00;;;;;;10190645;28;20761;-65
2021/05/03 11:56:16;;;;;;;15.80;7.85;;;21.50;41.40;;;;;;10190155;28;20052;-65
2021/05/03 12:01:21;;;;;;;20.58;8.70;;;21.10;41.80;;;;;;10189755;28;20858;-64
2021/05/03 12:06:36;;;;;;;18.02;8.98;;;20.80;43.50;;;;;;10189303;28;20503;-65
2021/05/03 12:11:39;;;;;;;18.40;9.40;;;20.70;44.10;;;;;;10192051;28;20054;-64
2021/05/03 12:16:42;;;;;;;17.95;10.05;;;20.70;45.50;;;;;;10190630;28;20050;-65
2021/05/03 12:21:43;;;;;;;18.13;10.35;;;20.90;45.40;;;;;;10192628;28;20061;-64
2021/05/03 12:26:55;;;;;;;20.65;10.32;;;20.80;45.60;;;;;;10191188;28;20049;-65
2021/05/03 12:31:58;;;;;;;17.80;11.13;;;20.80;46.10;;;;;;10191361;28;20824;-64
2021/05/03 12:37:11;;;;;;;23.27;12.10;;;20.90;46.00;;;;;;10192214;28;20084;-65
2021/05/03 12:42:15;;;;;;;17.95;11.43;;;21.00;44.80;;;;;;10193000;28;20065;-65
2021/05/03 12:47:30;;;;;;;19.00;11.30;;;20.70;45.60;;;;;;10191201;28;21237;-65
2021/05/03 12:52:37;;;;;;;23.13;11.82;;;20.70;45.60;;;;;;10191717;28;20141;-65
2021/05/03 12:57:48;;;;;;;21.95;11.40;;;21.00;44.60;;;;;;10191726;28;20054;-65
2021/05/03 13:03:12;;;;;;;19.15;12.25;;;21.40;43.80;;;;;;10191308;28;20148;-66
2021/05/03 13:08:33;;;;;;;16.48;11.93;;;21.00;44.00;;;;;;10192243;28;20058;-65
2021/05/03 13:29:44;;;;;;;13.57;10.50;;;20.80;44.80;;;;;;10190177;28;20062;-65
2021/05/03 13:34:47;;;;;;;18.05;9.50;;;20.80;43.70;;;;;;10187952;28;20467;-65
2021/05/03 13:39:49;;;;;;;13.88;9.13;;;20.20;43.80;;;;;;10190944;28;20635;-65
2021/05/03 13:44:50;;;;;;;18.15;8.38;;;19.80;44.80;;;;;;10191659;28;20046;-64
2021/05/03 13:49:53;;;;;;;12.60;8.23;;;19.70;44.70;;;;;;10193886;28;20177;-64
2021/05/03 13:54:54;;;;;;;13.10;7.90;;;19.40;43.90;;;;;;10189214;28;20124;-66
2021/05/03 13:59:57;;;;;;;11.27;7.43;;;18.90;45.40;;;;;;10191499;28;20816;-64
2021/05/03 14:04:59;;;;;;;16.05;7.50;;;18.30;46.10;;;;;;10197664;28;21564;-65
2021/05/03 14:10:00;;;;;;;13.40;6.65;;;18.20;46.80;;;;;;10200316;28;21279;-64
2021/05/03 14:15:02;;;;;;;14.77;7.07;;;18.40;46.40;;;;;;10200000;28;21029;-66
2021/05/03 14:20:06;;;;;;;9.20;5.18;;;18.50;45.90;;;;;;10199633;28;21088;-64
2021/05/03 14:25:11;;;;;;;10.13;5.20;;;18.50;45.30;;;;;;10200961;28;20189;-64
2021/05/03 14:30:19;;;;;;;6.38;4.78;;;18.30;45.60;;;;;;10197378;28;20566;-64
2021/05/03 14:35:25;;;;;;;15.65;5.43;;;18.10;46.20;;;;;;10199376;28;20490;-64
2021/05/03 14:40:27;;;;;;;9.32;5.57;;;17.90;46.40;;;;;;10197133;28;21186;-64
2021/05/03 14:45:32;;;;;;;12.80;6.43;;;17.90;46.50;;;;;;10200706;28;20050;-64
2021/05/03 14:50:49;;;;;;;13.02;5.68;;;17.90;47.30;;;;;;10197460;28;20054;-64
2021/05/03 14:55:50;;;;;;;20.40;7.03;;;18.10;47.10;;;;;;10199292;28;20101;-64
2021/05/03 15:00:52;;;;;;;14.47;5.73;;;18.10;47.20;;;;;;10197844;28;20053;-64
2021/05/03 15:05:58;;;;;;;11.35;5.57;;;18.00;47.30;;;;;;10200514;28;20054;-64
2021/05/03 15:10:59;;;;;;;13.15;5.70;;;17.90;47.40;;;;;;10196581;28;20064;-64
2021/05/03 15:16:05;;;;;;;9.20;4.75;;;17.80;47.20;;;;;;10196208;28;20065;-64
2021/05/03 15:26:31;;;;;;;13.38;4.82;;;17.50;47.90;;;;;;10193707;28;20054;-65
2021/05/03 15:31:48;;;;;;;11.95;4.97;;;17.40;47.90;;;;;;10198283;28;20064;-64
2021/05/03 15:36:51;;;;;;;9.98;4.57;;;17.50;47.90;;;;;;10196657;28;20660;-65
2021/05/03 15:41:53;;;;;;;12.82;5.00;;;17.40;47.90;;;;;;10196113;28;20145;-64
2021/05/03 15:46:54;;;;;;;10.60;4.87;;;17.10;48.20;;;;;;10196049;28;20683;-64
2021/05/03 15:51:56;;;;;;;8.47;4.83;;;16.60;49.10;;;;;;10198363;28;20095;-65
2021/05/03 15:56:58;;;;;;;13.13;4.82;;;16.50;50.50;;;;;;10198410;28;20188;-64
2021/05/03 16:02:00;;;;;;;14.52;5.30;;;16.50;50.60;;;;;;10197822;28;20976;-64
2021/05/03 16:07:03;;;;;;;8.00;4.65;;;16.40;50.90;;;;;;10197427;28;21673;-64
2021/05/03 16:12:05;;;;;;;7.65;4.47;;;16.30;51.00;;;;;;10197658;28;20060;-64
2021/05/03 16:17:07;;;;;;;10.07;4.43;;;16.20;51.00;;;;;;10195695;28;20050;-66
2021/05/03 16:22:09;;;;;;;9.07;4.88;;;16.10;51.20;;;;;;10197312;28;20061;-64
2021/05/03 16:27:11;;;;;;;7.55;4.47;;;16.00;51.50;;;;;;10195389;28;20065;-64
2021/05/03 16:32:13;;;;;;;9.70;4.90;;;15.80;52.20;;;;;;10195021;28;20060;-64
2021/05/03 16:37:15;;;;;;;6.40;5.07;;;15.60;53.20;;;;;;10194100;28;20053;-63
2021/05/03 16:42:17;;;;;;;6.72;4.00;;;15.50;53.80;;;;;;10195647;28;20050;-64
2021/05/03 16:47:19;;;;;;;7.45;3.65;;;15.50;54.40;;;;;;10195992;28;20192;-64
2021/05/03 16:52:21;;;;;;;6.90;3.83;;;15.40;54.40;;;;;;10194664;28;20060;-63
2021/05/03 16:57:23;;;;;;;8.73;4.32;;;15.20;55.00;;;;;;10191263;28;20049;-64
2021/05/03 17:02:24;;;;;;;8.10;4.10;;;14.90;55.80;;;;;;10194372;28;20763;-64
2021/05/03 17:07:26;;;;;;;9.93;4.03;;;14.60;56.30;;;;;;10195551;28;20097;-64
2021/05/03 17:12:28;;;;;;;7.38;3.67;;;14.30;56.80;;;;;;10192822;28;20710;-64
2021/05/03 17:17:30;;;;;;;7.45;3.58;;;14.20;57.30;;;;;;10191850;28;20088;-64
2021/05/03 17:22:32;;;;;;;11.70;3.20;;;14.10;59.20;;;;;;10197501;28;20104;-63
2021/05/03 17:27:34;;;;;;;5.60;3.13;;;14.00;59.40;;;;;;10196038;28;20474;-65
2021/05/03 17:32:36;;;;;;;6.60;3.05;;;13.80;59.20;;;;;;10193167;28;20133;-64
2021/05/03 17:37:38;;;;;;;5.30;3.05;;;13.70;59.30;;;;;;10199531;28;20409;-63
2021/05/03 17:42:39;;;;;;;8.93;3.13;;;13.50;59.60;;;;;;10202223;28;21477;-63
2021/05/03 17:47:41;;;;;;;9.17;2.70;;;13.40;59.00;;;;;;10201037;28;20092;-64
2021/05/03 17:52:44;;;;;;;9.10;2.78;;;13.20;58.80;;;;;;10203872;28;20095;-62
2021/05/03 17:57:46;;;;;;;9.57;2.73;;;13.00;58.90;;;;;;10201873;28;20275;-66
2021/05/03 18:02:48;;;;;;;8.13;2.77;;;12.90;59.50;;;;;;10203468;28;21246;-65
2021/05/03 18:07:51;;;;;;;3.60;2.30;;;12.80;59.90;;;;;;10204956;28;21255;-63
2021/05/03 18:12:53;;;;;;;4.57;2.20;;;12.70;59.20;;;;;;10202363;28;20167;-65
2021/05/03 18:17:55;;;;;;;4.20;2.50;;;12.60;58.50;;;;;;10206045;28;20051;-63
2021/05/03 18:22:57;;;;;;;5.68;3.47;;;12.50;58.90;;;;;;10207429;28;20054;-66
2021/05/03 18:27:59;;;;;;;5.82;3.40;;;12.50;59.80;;;;;;10199384;28;20181;-64
2021/05/03 18:33:01;;;;;;;8.43;3.17;;;12.40;60.60;;;;;;10205426;28;20061;-65
2021/05/03 18:38:04;;;;;;;6.88;3.05;;;12.30;61.10;;;;;;10209150;28;20050;-63
2021/05/03 18:43:06;;;;;;;4.70;3.75;;;12.20;61.50;;;;;;10207827;28;20171;-63
2021/05/03 18:48:11;;;;;;;12.35;4.78;;;12.10;61.90;;;;;;10207656;28;21610;-63
2021/05/03 18:53:14;;;;;;;6.30;3.35;;;12.00;62.10;;;;;;10202728;28;20062;-63
2021/05/03 18:58:16;;;;;;;4.65;2.80;;;12.00;62.80;;;;;;10203704;28;20054;-64
2021/05/03 19:03:21;;;;;;;9.85;3.15;;;11.90;63.20;;;;;;10198904;28;20955;-63
2021/05/03 19:08:23;;;;;;;5.68;3.55;;;11.80;63.50;;;;;;10204042;28;20084;-63
2021/05/03 19:13:25;;;;;;;6.30;3.45;;;11.70;64.20;;;;;;10204711;28;20057;-63
2021/05/03 19:18:29;;;;;;;17.00;4.45;;;11.60;65.00;;;;;;10208762;28;20050;-64
2021/05/03 19:23:33;;;;;;;10.15;3.58;;;11.50;65.70;;;;;;10208288;28;20064;-64
2021/05/03 19:28:36;;;;;;;5.93;2.63;;;11.40;66.60;;;;;;10211109;28;20058;-63
2021/05/03 19:33:39;;;;;;;4.88;2.63;;;11.40;67.20;;;;;;10205681;28;20057;-64
2021/05/03 19:38:41;;;;;;;;;;;11.30;67.50;;;;;;10211324;28;20053;-63
2021/05/03 19:43:48;;;;;;;8.83;3.00;;;12.50;68.70;;;;;;10208154;28;19980;-63
2021/05/03 19:48:54;;;;;;;6.43;4.05;;;11.30;68.50;;;;;;10209053;28;21351;-63
2021/05/03 19:54:14;;;;;;;10.18;4.40;;;11.30;69.20;;;;;;10208327;28;20116;-63
2021/05/03 20:04:35;;;;;;;14.23;4.57;;;11.30;71.20;;;;;;10202966;28;20933;-64
2021/05/03 20:09:39;;;;;;;11.90;5.03;;;11.20;73.10;;;;;;10203154;28;20810;-64
2021/05/03 20:14:42;;;;;;;12.75;5.65;;;11.20;73.40;;;;;;10204370;28;20054;-64
2021/05/03 20:19:43;;;;;;;10.43;6.27;;;11.10;75.40;;;;;;10202938;28;22056;-64
2021/05/03 20:24:47;;;;;;;14.77;5.80;;;11.10;77.20;;;;;;10202023;28;20432;-65
2021/05/03 20:29:53;;;;;;;9.40;5.75;;;11.00;78.50;;;;;;10205263;28;20069;-64
2021/05/03 20:34:57;;;;;;;14.13;6.05;;;11.00;79.20;;;;;;10203689;28;20180;-64
2021/05/03 20:40:04;;;;;;;12.65;6.28;;;10.90;80.30;;;;;;10202499;28;20975;-65
2021/05/03 20:45:10;;;;;;;14.93;6.15;;;11.00;81.30;;;;;;10203840;28;20069;-64
2021/05/03 20:50:13;;;;;;;15.88;6.55;;;10.90;83.10;;;;;;10203074;28;21288;-63
2021/05/03 20:55:15;;;;;;;15.75;6.85;;;10.90;83.40;;;;;;10199233;28;20439;-64
2021/05/03 21:00:18;;;;;;;14.60;6.97;;;11.00;83.70;;;;;;10191602;28;20602;-64
2021/05/03 21:05:20;;;;;;;10.13;5.32;;;11.00;83.50;;;;;;10191942;28;20614;-63
2021/05/03 21:10:22;;;;;;;6.75;5.35;;;11.10;82.90;;;;;;10198676;28;21712;-63
2021/05/03 21:15:24;;;;;;;8.82;5.00;;;11.20;81.20;;;;;;10203745;28;20054;-64
2021/05/03 21:20:25;;;;;;;7.20;4.07;;;11.40;78.60;;;;;;10202790;28;20050;-64
2021/05/03 21:25:28;;;;;;;5.28;3.85;;;11.50;75.60;;;;;;10206142;28;20391;-64
2021/05/03 21:30:30;;;;;;;6.78;3.72;;;11.70;73.50;;;;;;10204879;28;20058;-64
2021/05/03 21:35:31;;;;;;;7.32;3.95;;;11.80;72.20;;;;;;10204426;28;20149;-65
2021/05/03 21:40:34;;;;;;;8.07;4.20;;;11.90;71.10;;;;;;10204226;28;20050;-64
2021/05/03 21:45:36;;;;;;;6.15;4.07;;;12.00;71.80;;;;;;10193615;28;20056;-64
2021/05/03 21:50:38;;;;;;;7.05;4.28;;;11.90;72.10;;;;;;10204148;28;20191;-64
2021/05/03 21:55:40;;;;;;;6.22;4.50;;;11.90;72.30;;;;;;10201533;28;20085;-64
2021/05/03 22:00:41;;;;;;;4.70;3.57;;;11.80;73.70;;;;;;10201377;28;20084;-64
2021/05/03 22:05:42;;;;;;;6.45;4.47;;;11.80;71.60;;;;;;10201201;28;21025;-64
2021/05/03 22:10:45;;;;;;;8.93;4.05;;;11.80;72.50;;;;;;10200554;28;20050;-64
2021/05/03 22:15:50;;;;;;;11.00;5.10;;;11.80;71.50;;;;;;10200307;28;20593;-64
2021/05/03 22:20:58;;;;;;;16.48;6.68;;;11.70;75.40;;;;;;10200370;28;20049;-64
2021/05/03 22:26:06;;;;;;;10.15;6.90;;;11.50;80.80;;;;;;10201518;28;20399;-64
2021/05/03 22:31:09;;;;;;;12.00;6.82;;;11.20;85.20;;;;;;10199295;28;21754;-64
2021/05/03 22:36:14;;;;;;;13.18;8.00;;;10.90;88.60;;;;;;10204174;28;21615;-64
2021/05/03 23:18:44;;;;;;;12.73;8.48;;;8.90;98.80;;;;;;10175293;28;21113;-63
2021/05/03 23:23:45;;;;;;;13.98;8.60;;;8.90;99.70;;;;;;10198659;28;20058;-63
2021/05/03 23:28:48;;;;;;;13.32;7.53;;;8.80;99.90;;;;;;10201380;28;20059;-63
2021/05/03 23:33:49;;;;;;;11.83;7.63;;;8.60;99.90;;;;;;10197681;28;20050;-64
2021/05/03 23:38:52;;;;;;;21.58;10.40;;;8.60;99.90;;;;;;10201129;28;22052;-64
2021/05/03 23:43:54;;;;;;;8.73;6.68;;;8.40;99.90;;;;;;10200567;28;20088;-64
2021/05/03 23:48:55;;;;;;;24.57;10.97;;;8.30;99.90;;;;;;10200106;28;20061;-64
2021/05/03 23:53:57;;;;;;;19.60;9.38;;;8.20;99.90;;;;;;10197615;28;20054;-64
2021/05/03 23:58:59;;;;;;;16.88;10.30;;;8.10;99.90;;;;;;10196653;28;20060;-64
